createdAt,value
2019-06-27T00:01:44.944Z,99.90
2019-06-27T00:03:49.791Z,99.90
2019-06-27T00:05:54.398Z,99.90
2019-06-27T00:07:59.040Z,99.90
2019-06-27T00:10:04.693Z,99.90
2019-06-27T00:12:09.394Z,99.90
2019-06-27T00:14:14.016Z,99.90
2019-06-27T00:16:19.981Z,99.90
2019-06-27T00:18:24.612Z,99.90
2019-06-27T00:20:29.412Z,99.90
2019-06-27T00:22:34.756Z,99.90
2019-06-27T00:24:39.266Z,99.90
2019-06-27T00:26:56.663Z,99.90
2019-06-27T00:28:50.280Z,99.90
2019-06-27T00:30:54.864Z,99.90
2019-06-27T00:32:59.489Z,99.90
2019-06-27T00:35:04.513Z,99.90
2019-06-27T00:37:09.174Z,99.90
2019-06-27T00:39:13.932Z,99.90
2019-06-27T00:41:18.521Z,99.90
2019-06-27T00:43:23.189Z,99.90
2019-06-27T00:45:27.816Z,99.90
2019-06-27T00:47:33.545Z,99.90
2019-06-27T00:49:38.162Z,99.90
2019-06-27T00:51:45.276Z,99.90
2019-06-27T00:53:49.015Z,99.90
2019-06-27T00:55:53.892Z,99.90
2019-06-27T00:57:58.502Z,99.90
2019-06-27T01:00:03.356Z,99.90
2019-06-27T01:02:08.071Z,99.90
2019-06-27T01:04:14.404Z,99.90
2019-06-27T01:06:19.081Z,99.90
2019-06-27T01:08:23.677Z,99.90
2019-06-27T01:10:29.944Z,99.90
2019-06-27T01:12:34.528Z,99.90
2019-06-27T01:14:39.150Z,99.90
2019-06-27T01:16:43.813Z,99.90
2019-06-27T01:18:48.467Z,99.90
2019-06-27T01:20:53.162Z,99.90
2019-06-27T01:22:57.761Z,99.90
2019-06-27T01:25:02.412Z,99.90
2019-06-27T01:27:07.126Z,99.90
2019-06-27T01:29:11.745Z,99.90
2019-06-27T01:31:16.418Z,99.90
2019-06-27T01:33:21.076Z,99.90
2019-06-27T01:35:25.720Z,99.90
2019-06-27T01:37:30.236Z,99.90
2019-06-27T01:39:34.868Z,99.90
2019-06-27T01:41:39.479Z,99.90
2019-06-27T01:43:44.136Z,99.90
2019-06-27T01:45:56.589Z,99.90
2019-06-27T01:48:00.865Z,99.90
2019-06-27T01:50:06.026Z,99.90
2019-06-27T01:52:10.644Z,99.90
2019-06-27T01:54:15.673Z,99.90
2019-06-27T01:56:21.739Z,99.90
2019-06-27T01:58:26.362Z,99.90
2019-06-27T02:00:30.960Z,99.90
2019-06-27T02:02:35.607Z,99.90
2019-06-27T02:04:40.211Z,99.90
2019-06-27T02:06:44.887Z,99.90
2019-06-27T02:08:49.443Z,99.90
2019-06-27T02:10:54.091Z,99.90
2019-06-27T02:12:58.782Z,99.90
2019-06-27T02:15:03.422Z,99.90
2019-06-27T02:17:09.342Z,99.90
2019-06-27T02:19:14.189Z,99.90
2019-06-27T02:21:18.795Z,99.90
2019-06-27T02:23:25.311Z,99.90
2019-06-27T02:25:30.393Z,99.90
2019-06-27T02:27:35.047Z,99.90
2019-06-27T02:29:39.677Z,99.90
2019-06-27T02:31:44.578Z,99.90
2019-06-27T02:33:49.220Z,99.90
2019-06-27T02:35:53.825Z,99.90
2019-06-27T02:37:58.547Z,99.90
2019-06-27T02:40:03.274Z,99.90
2019-06-27T02:42:08.052Z,99.90
2019-06-27T02:44:12.793Z,99.90
2019-06-27T02:46:17.417Z,99.90
2019-06-27T02:48:21.915Z,99.90
2019-06-27T02:50:26.774Z,99.90
2019-06-27T02:52:31.347Z,99.90
2019-06-27T02:54:36.002Z,99.90
2019-06-27T02:56:40.968Z,99.90
2019-06-27T02:58:45.773Z,99.90
2019-06-27T03:00:50.363Z,99.90
2019-06-27T03:02:55.246Z,99.90
2019-06-27T03:05:02.135Z,99.90
2019-06-27T03:07:08.234Z,99.90
2019-06-27T03:09:13.930Z,99.90
2019-06-27T03:11:18.469Z,99.90
2019-06-27T03:13:23.022Z,99.90
2019-06-27T03:15:27.791Z,99.90
2019-06-27T03:17:32.369Z,99.90
2019-06-27T03:19:36.936Z,99.90
2019-06-27T03:21:41.452Z,99.90
2019-06-27T03:23:46.013Z,99.90
2019-06-27T03:25:52.873Z,99.90
2019-06-27T03:27:57.505Z,99.90
2019-06-27T03:30:02.155Z,99.90
2019-06-27T03:32:09.743Z,99.90
2019-06-27T03:34:14.369Z,99.90
2019-06-27T03:36:33.065Z,99.90
2019-06-27T03:38:28.102Z,99.90
2019-06-27T03:40:32.733Z,99.90
2019-06-27T03:42:37.250Z,99.90
2019-06-27T03:44:41.822Z,99.90
2019-06-27T03:46:46.369Z,99.90
2019-06-27T03:48:50.889Z,99.90
2019-06-27T03:50:56.451Z,99.90
2019-06-27T03:53:01.278Z,99.90
2019-06-27T03:55:06.140Z,99.90
2019-06-27T05:37:28.607Z,99.90
2019-06-27T05:40:31.462Z,99.90
2019-06-27T05:43:04.014Z,99.90
2019-06-27T05:52:36.676Z,99.90
2019-06-27T07:37:06.943Z,87.40
2019-06-27T07:39:25.329Z,87.80
2019-06-27T07:41:36.274Z,86.70
2019-06-27T07:43:55.666Z,85.00
2019-06-27T07:46:24.446Z,84.10
2019-06-27T07:48:36.071Z,83.30
2019-06-27T07:50:52.263Z,84.10
2019-06-27T07:53:28.803Z,85.70
2019-06-27T07:55:53.923Z,85.20
2019-06-27T07:58:10.616Z,84.70
2019-06-27T08:00:29.251Z,84.40
2019-06-27T08:02:47.050Z,83.40
2019-06-27T08:05:05.939Z,82.00
2019-06-27T08:07:25.811Z,81.20
2019-06-27T08:09:39.494Z,80.20
2019-06-27T08:12:05.617Z,78.50
2019-06-27T08:14:28.382Z,80.00
2019-06-27T08:16:43.809Z,80.20
2019-06-27T08:18:59.060Z,79.00
2019-06-27T08:21:18.072Z,78.90
2019-06-27T08:23:41.394Z,78.90
2019-06-27T08:25:49.881Z,79.60
2019-06-27T08:28:05.928Z,79.00
2019-06-27T08:30:27.228Z,78.80
2019-06-27T08:32:44.285Z,77.90
2019-06-27T08:35:02.536Z,77.80
2019-06-27T08:37:32.411Z,75.60
2019-06-27T08:39:46.947Z,74.40
2019-06-27T08:42:01.095Z,73.10
2019-06-27T08:44:18.159Z,73.70
2019-06-27T08:46:29.794Z,74.40
2019-06-27T08:48:47.022Z,72.50
2019-06-27T08:51:09.656Z,72.00
2019-06-27T08:53:25.019Z,72.40
2019-06-27T08:55:41.855Z,71.80
2019-06-27T08:57:55.711Z,71.40
2019-06-27T09:00:12.091Z,72.00
2019-06-27T09:02:32.031Z,72.60
2019-06-27T09:04:55.089Z,71.40
2019-06-27T09:07:04.031Z,70.10
2019-06-27T09:09:17.736Z,70.80
2019-06-27T09:11:45.163Z,71.00
2019-06-27T09:14:03.150Z,70.00
2019-06-27T09:16:21.793Z,70.30
2019-06-27T09:18:34.948Z,70.80
2019-06-27T09:20:49.927Z,69.40
2019-06-27T09:23:13.430Z,66.50
2019-06-27T09:25:27.005Z,65.70
2019-06-27T09:27:50.385Z,67.20
2019-06-27T09:29:57.594Z,66.30
2019-06-27T09:32:03.571Z,64.80
2019-06-27T09:34:21.554Z,64.00
2019-06-27T09:36:46.289Z,63.00
2019-06-27T09:39:01.517Z,61.90
2019-06-27T09:41:10.656Z,61.80
2019-06-27T09:43:23.421Z,64.00
2019-06-27T09:45:52.190Z,65.30
2019-06-27T09:48:05.141Z,64.20
2019-06-27T09:50:21.740Z,63.60
2019-06-27T09:52:41.037Z,64.00
2019-06-27T09:54:56.598Z,63.80
2019-06-27T09:57:15.694Z,63.70
2019-06-27T09:59:36.162Z,62.40
2019-06-27T10:01:52.247Z,63.60
2019-06-27T10:04:13.083Z,63.20
2019-06-27T10:07:00.636Z,62.70
2019-06-27T10:09:21.951Z,62.50
2019-06-27T10:14:38.151Z,61.70
2019-06-27T10:16:50.963Z,62.60
2019-06-27T10:19:05.139Z,60.00
2019-06-27T10:21:17.836Z,58.40
2019-06-27T10:23:45.519Z,57.20
2019-06-27T10:26:03.562Z,56.90
2019-06-27T10:28:28.890Z,57.90
2019-06-27T10:31:25.430Z,56.80
2019-06-27T10:33:43.725Z,57.60
2019-06-27T10:36:01.285Z,57.80
2019-06-27T10:38:14.632Z,56.00
2019-06-27T10:40:31.151Z,56.20
2019-06-27T10:42:48.832Z,55.60
2019-06-27T10:44:59.607Z,53.30
2019-06-27T10:47:12.615Z,53.40
2019-06-27T10:49:36.042Z,52.50
2019-06-27T10:51:56.124Z,51.50
2019-06-27T10:54:12.348Z,51.80
2019-06-27T10:56:29.219Z,48.50
2019-06-27T10:58:43.762Z,50.20
2019-06-27T11:01:00.806Z,51.70
2019-06-27T11:03:44.157Z,51.80
2019-06-27T11:06:08.732Z,50.90
2019-06-27T11:08:25.274Z,52.60
2019-06-27T11:10:44.612Z,51.20
2019-06-27T11:13:04.274Z,50.70
2019-06-27T11:15:42.280Z,51.00
2019-06-27T11:18:22.886Z,50.50
2019-06-27T11:23:21.997Z,49.30
2019-06-27T11:25:34.501Z,48.00
2019-06-27T11:27:49.332Z,48.70
2019-06-27T11:30:03.501Z,48.50
2019-06-27T11:32:14.934Z,47.80
2019-06-27T11:34:25.661Z,48.60
2019-06-27T11:36:57.993Z,48.30
2019-06-27T11:39:23.251Z,47.20
2019-06-27T11:41:41.262Z,45.90
2019-06-27T11:44:23.108Z,45.80
2019-06-27T11:46:34.662Z,45.40
2019-06-27T11:51:29.748Z,45.70
2019-06-27T11:53:58.312Z,44.90
2019-06-27T11:56:14.780Z,45.30
2019-06-27T11:58:29.039Z,46.00
2019-06-27T12:00:58.447Z,45.00
2019-06-27T12:03:17.112Z,44.80
2019-06-27T12:05:33.116Z,43.60
2019-06-27T12:08:04.006Z,41.80
2019-06-27T12:10:34.551Z,39.40
2019-06-27T12:12:40.870Z,40.30
2019-06-27T12:14:54.744Z,41.40
2019-06-27T12:17:10.003Z,41.60
2019-06-27T12:19:26.942Z,42.00
2019-06-27T12:22:01.382Z,41.80
2019-06-27T12:24:13.354Z,41.50
2019-06-27T12:26:37.774Z,41.70
2019-06-27T12:29:11.335Z,41.80
2019-06-27T12:34:06.947Z,42.50
2019-06-27T12:36:18.892Z,43.00
2019-06-27T12:38:36.534Z,42.70
2019-06-27T12:40:47.862Z,43.10
2019-06-27T12:43:19.478Z,42.80
2019-06-27T12:45:35.135Z,42.30
2019-06-27T12:47:49.240Z,42.00
2019-06-27T12:50:02.836Z,41.50
2019-06-27T12:52:10.053Z,42.20
2019-06-27T12:54:23.634Z,41.70
2019-06-27T12:56:38.251Z,40.90
2019-06-27T12:58:56.389Z,41.10
2019-06-27T13:01:11.691Z,40.90
2019-06-27T13:03:22.962Z,41.10
2019-06-27T13:05:48.053Z,41.30
2019-06-27T13:08:09.220Z,41.30
2019-06-27T13:10:35.518Z,42.20
2019-06-27T13:12:58.350Z,41.70
2019-06-27T13:15:09.668Z,41.10
2019-06-27T13:17:21.821Z,41.80
2019-06-27T13:19:41.472Z,41.70
2019-06-27T13:22:02.008Z,41.80
2019-06-27T13:24:28.769Z,41.60
2019-06-27T13:27:07.099Z,41.10
2019-06-27T13:29:26.803Z,40.90
2019-06-27T13:31:41.489Z,40.30
2019-06-27T13:34:08.411Z,40.10
2019-06-27T13:36:27.132Z,40.90
2019-06-27T13:41:49.022Z,40.50
2019-06-27T13:44:09.959Z,40.70
2019-06-27T13:49:11.826Z,38.60
2019-06-27T13:51:21.614Z,38.20
2019-06-27T13:53:57.448Z,38.00
2019-06-27T13:56:12.661Z,38.10
2019-06-27T13:58:30.502Z,38.30
2019-06-27T14:01:06.630Z,38.40
2019-06-27T14:03:49.704Z,37.70
2019-06-27T14:09:53.795Z,37.20
2019-06-27T14:12:04.235Z,37.30
2019-06-27T14:15:01.479Z,37.70
2019-06-27T14:17:18.018Z,37.80
2019-06-27T14:19:36.290Z,37.30
2019-06-27T14:21:53.100Z,37.80
2019-06-27T14:24:05.603Z,37.80
2019-06-27T14:26:21.522Z,38.10
2019-06-27T14:28:37.077Z,37.60
2019-06-27T14:30:47.494Z,37.20
2019-06-27T14:33:22.173Z,36.30
2019-06-27T14:35:41.446Z,35.40
2019-06-27T14:38:04.853Z,36.50
2019-06-27T14:40:20.810Z,36.90
2019-06-27T14:42:33.234Z,36.60
2019-06-27T14:45:04.371Z,36.80
2019-06-27T14:47:38.181Z,36.20
2019-06-27T14:49:51.185Z,36.70
2019-06-27T14:52:12.840Z,36.60
2019-06-27T14:54:30.319Z,35.90
2019-06-27T14:56:47.422Z,35.30
2019-06-27T14:59:15.435Z,36.20
2019-06-27T15:01:27.534Z,37.20
2019-06-27T15:03:47.918Z,37.10
2019-06-27T15:06:23.273Z,37.20
2019-06-27T15:08:39.063Z,37.10
2019-06-27T15:11:14.682Z,36.50
2019-06-27T15:13:32.074Z,36.50
2019-06-27T15:15:47.902Z,36.70
2019-06-27T15:18:04.842Z,36.40
2019-06-27T15:20:23.543Z,36.20
2019-06-27T15:22:44.364Z,35.90
2019-06-27T15:24:56.823Z,36.10
2019-06-27T15:27:06.032Z,35.70
2019-06-27T15:29:26.205Z,35.30
2019-06-27T15:34:28.047Z,35.40
2019-06-27T15:36:44.520Z,35.40
2019-06-27T15:39:01.224Z,35.40
2019-06-27T15:41:12.777Z,35.20
2019-06-27T15:43:39.106Z,35.10
2019-06-27T15:48:25.469Z,34.40
2019-06-27T15:50:55.562Z,35.20
2019-06-27T15:53:09.476Z,34.90
2019-06-27T15:55:45.562Z,35.30
2019-06-27T16:00:33.533Z,35.20
2019-06-27T16:02:47.878Z,34.60
2019-06-27T16:05:05.816Z,34.30
2019-06-27T16:07:28.084Z,34.50
2019-06-27T16:09:54.473Z,34.30
2019-06-27T16:12:11.179Z,34.20
2019-06-27T16:14:28.132Z,34.20
2019-06-27T16:16:42.388Z,33.80
2019-06-27T16:19:02.202Z,34.10
2019-06-27T16:21:19.402Z,34.20
2019-06-27T16:23:42.674Z,34.40
2019-06-27T16:25:53.220Z,34.70
2019-06-27T16:28:12.042Z,33.90
2019-06-27T16:30:28.338Z,33.90
2019-06-27T16:32:41.740Z,33.40
2019-06-27T16:35:00.680Z,33.80
2019-06-27T16:37:21.001Z,33.70
2019-06-27T16:39:28.434Z,33.50
2019-06-27T16:41:51.859Z,33.30
2019-06-27T16:44:17.542Z,33.90
2019-06-27T16:46:47.340Z,33.90
2019-06-27T16:49:06.775Z,33.60
2019-06-27T16:51:24.413Z,33.50
2019-06-27T16:53:43.135Z,32.90
2019-06-27T16:55:55.975Z,33.20
2019-06-27T16:58:10.020Z,33.40
2019-06-27T17:00:21.885Z,33.60
2019-06-27T17:02:35.922Z,33.50
2019-06-27T17:04:46.799Z,33.40
2019-06-27T17:07:05.726Z,33.00
2019-06-27T17:09:18.334Z,33.60
2019-06-27T17:11:26.623Z,33.90
2019-06-27T17:13:45.450Z,33.80
2019-06-27T17:15:56.510Z,33.70
2019-06-27T17:18:11.258Z,33.90
2019-06-27T17:20:23.393Z,34.00
2019-06-27T17:22:32.597Z,34.00
2019-06-27T17:24:44.725Z,35.00
2019-06-27T17:26:56.573Z,34.00
2019-06-27T17:29:04.367Z,34.20
2019-06-27T17:31:15.122Z,33.90
2019-06-27T17:33:26.942Z,33.90
2019-06-27T17:35:42.184Z,34.10
2019-06-27T17:37:56.842Z,34.30
2019-06-27T17:40:11.342Z,34.50
2019-06-27T17:42:41.769Z,34.40
2019-06-27T17:45:02.815Z,34.70
2019-06-27T17:47:40.600Z,34.90
2019-06-27T17:49:52.560Z,35.20
2019-06-27T17:52:04.658Z,36.10
2019-06-27T17:54:19.685Z,36.60
2019-06-27T17:56:34.197Z,37.10
2019-06-27T17:58:53.710Z,37.10
2019-06-27T18:01:13.134Z,37.10
2019-06-27T18:03:51.701Z,37.50
2019-06-27T18:06:08.527Z,37.70
2019-06-27T18:08:28.039Z,38.90
2019-06-27T18:10:43.972Z,38.80
2019-06-27T18:12:59.372Z,40.10
2019-06-27T18:15:09.928Z,41.50
2019-06-27T18:17:33.572Z,42.80
2019-06-27T18:19:37.738Z,43.70
2019-06-27T18:21:50.657Z,44.80
2019-06-27T18:24:08.078Z,45.60
2019-06-27T18:26:29.759Z,46.10
2019-06-27T18:28:55.940Z,47.00
2019-06-27T18:31:05.670Z,47.80
2019-06-27T18:33:22.247Z,48.50
2019-06-27T18:35:40.118Z,49.00
2019-06-27T18:37:55.919Z,49.80
2019-06-27T18:40:06.914Z,50.40
2019-06-27T18:42:20.441Z,50.90
2019-06-27T18:44:35.826Z,51.80
2019-06-27T18:46:49.422Z,52.30
2019-06-27T18:48:59.760Z,52.80
2019-06-27T18:51:12.096Z,53.30
2019-06-27T18:53:25.761Z,53.80
2019-06-27T18:55:35.518Z,54.40
2019-06-27T18:57:54.241Z,54.60
2019-06-27T19:00:02.822Z,55.00
2019-06-27T19:02:11.438Z,55.30
2019-06-27T19:04:20.746Z,55.60
2019-06-27T19:06:32.339Z,55.80
2019-06-27T19:08:47.724Z,56.20
2019-06-27T19:11:11.147Z,56.40
2019-06-27T19:13:22.819Z,56.50
2019-06-27T19:15:35.999Z,56.70
2019-06-27T19:17:47.689Z,56.90
2019-06-27T19:20:01.688Z,56.90
2019-06-27T19:22:32.436Z,57.10
2019-06-27T19:24:54.169Z,57.10
2019-06-27T19:27:11.979Z,57.30
2019-06-27T19:29:28.260Z,57.60
2019-06-27T19:31:40.589Z,57.70
2019-06-27T19:33:58.993Z,58.00
2019-06-27T19:36:16.817Z,58.30
2019-06-27T19:38:34.687Z,58.40
2019-06-27T19:40:48.723Z,58.80
2019-06-27T19:43:23.366Z,58.90
2019-06-27T19:45:28.573Z,59.10
2019-06-27T19:48:00.985Z,59.60
2019-06-27T19:50:18.209Z,59.90
2019-06-27T19:52:34.289Z,61.10
2019-06-27T19:54:50.095Z,60.60
2019-06-27T19:57:03.939Z,60.60
2019-06-27T19:59:25.353Z,60.70
2019-06-27T20:01:40.718Z,61.10
2019-06-27T20:04:01.264Z,61.30
2019-06-27T20:06:14.023Z,61.70
2019-06-27T20:08:28.689Z,61.30
2019-06-27T20:10:45.462Z,61.10
2019-06-27T20:15:56.818Z,61.50
2019-06-27T20:18:15.444Z,61.40
2019-06-27T20:20:28.463Z,61.60
2019-06-27T20:22:41.702Z,61.80
2019-06-27T20:25:00.993Z,62.00
2019-06-27T20:27:13.633Z,62.20
2019-06-27T20:29:30.721Z,62.40
2019-06-27T20:31:52.210Z,62.90
2019-06-27T20:34:02.018Z,63.30
2019-06-27T20:36:13.106Z,63.50
2019-06-27T20:38:35.506Z,63.90
2019-06-27T20:40:48.179Z,64.00
2019-06-27T20:43:05.867Z,64.30
2019-06-27T20:45:25.136Z,64.50
2019-06-27T20:47:44.910Z,64.80
2019-06-27T20:52:30.930Z,65.30
2019-06-27T20:54:48.358Z,65.70
2019-06-27T20:57:11.645Z,66.00
2019-06-27T20:59:29.680Z,66.10
2019-06-27T21:01:47.022Z,66.40
2019-06-27T21:04:00.414Z,66.60
2019-06-27T21:06:24.332Z,66.80
2019-06-27T21:08:50.193Z,67.10
2019-06-27T21:10:57.185Z,67.30
2019-06-27T21:13:10.545Z,67.40
2019-06-27T21:15:31.304Z,67.60
2019-06-27T21:17:46.782Z,67.70
2019-06-27T21:19:59.975Z,67.80
2019-06-27T21:22:15.828Z,67.90
2019-06-27T21:24:27.902Z,67.90
2019-06-27T21:26:42.487Z,68.10
2019-06-27T21:28:57.487Z,68.30
2019-06-27T21:31:08.909Z,68.40
2019-06-27T21:33:26.451Z,68.60
2019-06-27T21:35:38.808Z,68.70
2019-06-27T21:37:55.600Z,69.00
2019-06-27T21:40:07.131Z,69.10
2019-06-27T21:42:24.057Z,69.20
2019-06-27T21:44:46.278Z,69.40
2019-06-27T21:47:04.811Z,69.50
2019-06-27T21:49:15.650Z,69.80
2019-06-27T21:51:29.582Z,69.90
2019-06-27T21:53:45.543Z,70.10
2019-06-27T21:55:55.138Z,70.40
2019-06-27T21:58:05.841Z,70.40
2019-06-27T22:00:18.243Z,70.70
2019-06-27T22:02:34.731Z,71.50
2019-06-27T22:04:57.778Z,70.80
2019-06-27T22:07:18.445Z,71.00
2019-06-27T22:09:33.681Z,71.00
2019-06-27T22:11:43.584Z,71.10
2019-06-27T22:13:52.995Z,71.20
2019-06-27T22:16:03.018Z,71.50
2019-06-27T22:18:15.763Z,71.80
2019-06-27T22:20:30.473Z,72.10
2019-06-27T22:22:51.214Z,72.30
2019-06-27T22:24:57.186Z,72.60
2019-06-27T22:27:05.142Z,73.10
2019-06-27T22:29:20.911Z,73.50
2019-06-27T22:31:34.843Z,73.90
2019-06-27T22:33:52.768Z,74.00
2019-06-27T22:36:18.723Z,74.50
2019-06-27T22:38:40.877Z,74.90
2019-06-27T22:41:15.383Z,75.10
2019-06-27T22:43:55.393Z,75.40
2019-06-27T22:46:23.374Z,75.60
2019-06-27T22:48:35.770Z,76.00
2019-06-27T22:51:10.865Z,76.40
2019-06-27T22:53:20.905Z,76.90
2019-06-27T22:55:29.787Z,77.20
2019-06-27T22:57:41.190Z,77.20
2019-06-27T22:59:57.632Z,77.50
2019-06-27T23:02:09.975Z,77.80
2019-06-27T23:04:26.320Z,77.80
2019-06-27T23:06:38.485Z,77.90
2019-06-27T23:08:50.667Z,78.20
2019-06-27T23:11:24.095Z,78.50
2019-06-27T23:13:38.539Z,78.90
2019-06-27T23:15:49.147Z,79.00
2019-06-27T23:18:02.271Z,79.30
2019-06-27T23:20:16.372Z,80.20
2019-06-27T23:22:25.236Z,79.80
2019-06-27T23:24:43.709Z,79.90
2019-06-27T23:27:22.827Z,80.10
2019-06-27T23:29:36.887Z,80.30
2019-06-27T23:31:56.132Z,80.50
2019-06-27T23:34:14.280Z,80.70
2019-06-27T23:36:33.263Z,81.00
2019-06-27T23:38:45.565Z,81.40
2019-06-27T23:40:51.937Z,81.60
2019-06-27T23:43:00.318Z,81.80
2019-06-27T23:45:11.301Z,82.20
2019-06-27T23:47:23.925Z,82.70
2019-06-27T23:49:34.778Z,83.20
2019-06-27T23:51:41.312Z,83.60
2019-06-27T23:53:57.968Z,84.00
2019-06-27T23:56:06.862Z,84.40
2019-06-27T23:58:17.303Z,84.90
